createdAt,value
2023-01-23T00:00:08.238Z,7.10
2023-01-23T00:03:00.209Z,6.50
2023-01-23T00:05:32.263Z,6.80
2023-01-23T00:08:04.043Z,8.30
2023-01-23T00:10:35.776Z,7.20
2023-01-23T00:13:07.519Z,8.20
2023-01-23T00:15:41.653Z,8.60
2023-01-23T00:18:13.418Z,9.60
2023-01-23T00:20:45.335Z,8.30
2023-01-23T00:23:17.055Z,8.30
2023-01-23T00:25:48.779Z,7.60
2023-01-23T00:28:20.445Z,7.10
2023-01-23T00:30:52.226Z,8.00
2023-01-23T00:33:24.111Z,9.10
2023-01-23T00:35:58.026Z,8.60
2023-01-23T00:38:29.890Z,7.90
2023-01-23T00:41:02.308Z,7.50
2023-01-23T00:43:34.460Z,7.10
2023-01-23T00:46:06.488Z,6.30
2023-01-23T00:48:38.232Z,6.30
2023-01-23T00:51:10.446Z,6.20
2023-01-23T00:53:42.624Z,5.70
2023-01-23T00:56:14.641Z,6.50
2023-01-23T00:58:46.686Z,7.70
2023-01-23T01:01:18.823Z,8.60
2023-01-23T01:03:51.196Z,8.90
2023-01-23T01:06:22.984Z,7.40
2023-01-23T01:08:54.787Z,7.40
2023-01-23T01:11:27.106Z,8.30
2023-01-23T01:13:58.916Z,7.50
2023-01-23T01:16:30.835Z,7.60
2023-01-23T01:19:02.643Z,7.30
2023-01-23T01:21:35.791Z,7.90
2023-01-23T01:24:08.318Z,8.20
2023-01-23T01:26:40.205Z,9.30
2023-01-23T01:29:11.869Z,12.70
2023-01-23T01:31:43.681Z,8.80
2023-01-23T01:34:15.634Z,7.40
2023-01-23T01:36:47.346Z,7.00
2023-01-23T01:39:19.118Z,6.10
2023-01-23T01:41:50.817Z,7.00
2023-01-23T01:44:25.018Z,7.60
2023-01-23T01:46:56.728Z,8.10
2023-01-23T01:49:33.302Z,7.80
2023-01-23T01:52:09.341Z,7.90
2023-01-23T01:54:44.701Z,7.30
2023-01-23T01:57:20.185Z,8.30
2023-01-23T01:59:55.035Z,7.50
2023-01-23T02:02:30.258Z,12.60
2023-01-23T02:05:05.080Z,9.30
2023-01-23T02:07:40.330Z,7.70
2023-01-23T02:10:14.188Z,6.50
2023-01-23T02:12:49.321Z,5.60
2023-01-23T02:15:23.201Z,5.00
2023-01-23T02:17:56.177Z,6.30
2023-01-23T02:20:29.567Z,6.50
2023-01-23T02:23:09.475Z,7.70
2023-01-23T02:25:43.037Z,7.80
2023-01-23T02:28:16.767Z,6.60
2023-01-23T02:30:50.614Z,6.80
2023-01-23T02:33:47.460Z,7.70
2023-01-23T02:36:21.488Z,7.30
2023-01-23T02:39:05.508Z,5.40
2023-01-23T02:41:39.188Z,6.60
2023-01-23T02:44:17.311Z,7.50
2023-01-23T02:46:49.235Z,7.00
2023-01-23T02:49:21.907Z,6.10
2023-01-23T02:51:55.145Z,6.00
2023-01-23T02:54:27.421Z,7.30
2023-01-23T02:56:59.705Z,7.60
2023-01-23T02:59:48.056Z,8.50
2023-01-23T03:02:20.011Z,7.30
2023-01-23T03:04:51.993Z,7.80
2023-01-23T03:07:23.753Z,7.80
2023-01-23T03:09:55.468Z,7.70
2023-01-23T03:12:27.295Z,7.00
2023-01-23T03:14:59.006Z,8.40
2023-01-23T03:17:30.712Z,7.60
2023-01-23T03:20:03.539Z,7.00
2023-01-23T03:22:35.550Z,7.20
2023-01-23T03:25:08.269Z,7.50
2023-01-23T03:27:40.018Z,6.90
2023-01-23T03:30:16.104Z,7.10
2023-01-23T03:32:48.525Z,6.90
2023-01-23T03:35:21.317Z,6.80
2023-01-23T03:37:53.232Z,8.20
2023-01-23T03:40:44.024Z,7.80
2023-01-23T03:43:15.863Z,6.90
2023-01-23T03:45:47.667Z,7.70
2023-01-23T03:48:19.340Z,7.70
2023-01-23T03:50:51.071Z,9.40
2023-01-23T03:53:23.328Z,9.30
2023-01-23T03:55:55.067Z,8.20
2023-01-23T03:58:26.851Z,8.40
2023-01-23T04:00:58.663Z,7.20
2023-01-23T04:03:30.559Z,6.70
2023-01-23T04:06:02.765Z,6.80
2023-01-23T04:08:34.530Z,5.70
2023-01-23T04:11:08.311Z,7.10
2023-01-23T04:13:40.292Z,7.70
2023-01-23T04:16:12.122Z,6.60
2023-01-23T04:18:43.874Z,6.10
2023-01-23T04:21:15.606Z,8.00
2023-01-23T04:23:47.285Z,10.50
2023-01-23T04:26:19.405Z,7.40
2023-01-23T04:28:51.114Z,6.00
2023-01-23T04:31:22.949Z,5.80
2023-01-23T04:33:54.797Z,7.40
2023-01-23T04:36:26.606Z,6.60
2023-01-23T04:38:58.964Z,6.50
2023-01-23T04:41:32.239Z,5.00
2023-01-23T04:44:18.191Z,5.80
2023-01-23T04:46:51.277Z,5.60
2023-01-23T04:49:24.143Z,7.80
2023-01-23T04:51:56.152Z,6.70
2023-01-23T04:54:28.647Z,5.70
2023-01-23T04:57:00.437Z,6.50
2023-01-23T04:59:32.232Z,5.40
2023-01-23T05:02:04.031Z,6.80
2023-01-23T05:04:36.148Z,9.00
2023-01-23T05:07:09.214Z,17.90
2023-01-23T05:09:41.132Z,17.70
2023-01-23T05:12:12.841Z,13.90
2023-01-23T05:14:44.538Z,12.90
2023-01-23T05:17:16.372Z,12.40
2023-01-23T05:19:48.094Z,10.10
2023-01-23T05:22:20.074Z,7.30
2023-01-23T05:24:51.816Z,11.20
2023-01-23T05:27:23.552Z,11.30
2023-01-23T05:29:55.261Z,9.60
2023-01-23T05:32:27.209Z,11.70
2023-01-23T05:34:58.922Z,10.90
2023-01-23T05:37:30.656Z,9.00
2023-01-23T05:40:02.550Z,7.80
2023-01-23T05:42:34.309Z,9.80
2023-01-23T05:45:07.645Z,14.00
2023-01-23T05:47:39.582Z,12.70
2023-01-23T05:50:17.422Z,8.80
2023-01-23T05:52:49.320Z,10.50
2023-01-23T05:55:21.312Z,9.90
2023-01-23T05:57:53.046Z,10.30
2023-01-23T06:00:25.277Z,7.40
2023-01-23T06:02:57.060Z,7.20
2023-01-23T06:05:28.929Z,7.80
2023-01-23T06:08:00.671Z,9.40
2023-01-23T06:10:32.505Z,10.20
2023-01-23T06:13:04.314Z,8.90
2023-01-23T06:15:36.071Z,8.70
2023-01-23T06:18:07.972Z,13.40
2023-01-23T06:20:39.718Z,22.50
2023-01-23T06:23:11.479Z,20.90
2023-01-23T06:25:43.412Z,9.80
2023-01-23T06:28:15.143Z,12.90
2023-01-23T06:30:46.949Z,13.70
2023-01-23T06:33:18.820Z,8.90
2023-01-23T06:35:50.788Z,6.90
2023-01-23T06:38:22.579Z,5.50
2023-01-23T06:40:54.792Z,5.90
2023-01-23T06:43:28.929Z,7.60
2023-01-23T06:46:00.711Z,10.60
2023-01-23T06:48:32.448Z,14.00
2023-01-23T06:51:04.867Z,12.90
2023-01-23T06:53:36.757Z,12.20
2023-01-23T06:56:10.618Z,9.60
2023-01-23T06:58:44.772Z,9.10
2023-01-23T07:01:19.248Z,11.10
2023-01-23T07:03:51.192Z,9.40
2023-01-23T07:06:23.192Z,10.50
2023-01-23T07:08:55.075Z,9.30
2023-01-23T07:11:26.793Z,10.40
2023-01-23T07:13:58.495Z,9.50
2023-01-23T07:16:30.299Z,10.80
2023-01-23T07:19:02.596Z,11.70
2023-01-23T07:21:34.736Z,18.00
2023-01-23T07:24:07.235Z,25.20
2023-01-23T07:26:39.127Z,28.20
2023-01-23T07:29:11.170Z,24.80
2023-01-23T07:31:43.066Z,25.60
2023-01-23T07:34:15.408Z,20.60
2023-01-23T07:36:47.138Z,14.80
2023-01-23T07:39:18.876Z,12.00
2023-01-23T07:41:50.634Z,12.80
2023-01-23T07:44:23.573Z,16.90
2023-01-23T07:46:55.321Z,13.10
2023-01-23T07:49:27.058Z,10.50
2023-01-23T07:51:58.742Z,16.70
2023-01-23T07:54:30.477Z,23.60
2023-01-23T07:57:02.250Z,15.00
2023-01-23T07:59:34.160Z,13.40
2023-01-23T08:02:05.914Z,12.30
2023-01-23T08:04:37.846Z,8.80
2023-01-23T08:07:09.631Z,12.70
2023-01-23T08:09:41.458Z,11.00
2023-01-23T08:12:14.277Z,11.40
2023-01-23T08:14:46.115Z,12.60
2023-01-23T08:17:17.822Z,14.30
2023-01-23T08:19:49.842Z,20.90
2023-01-23T08:22:21.538Z,13.30
2023-01-23T08:24:53.284Z,10.60
2023-01-23T08:27:25.031Z,13.40
2023-01-23T08:29:56.783Z,14.30
2023-01-23T08:32:28.563Z,11.90
2023-01-23T08:35:00.757Z,11.10
2023-01-23T08:37:33.357Z,14.20
2023-01-23T08:40:05.305Z,13.60
2023-01-23T08:42:37.103Z,13.30
2023-01-23T08:45:10.753Z,10.30
2023-01-23T08:47:42.524Z,10.50
2023-01-23T08:50:15.266Z,10.40
2023-01-23T08:52:47.031Z,10.20
2023-01-23T08:55:18.908Z,12.90
2023-01-23T08:57:50.608Z,12.30
2023-01-23T09:00:23.703Z,10.40
2023-01-23T09:02:55.906Z,9.50
2023-01-23T09:05:28.843Z,9.00
2023-01-23T09:08:00.980Z,10.90
2023-01-23T09:10:32.844Z,8.70
2023-01-23T09:13:04.705Z,10.30
2023-01-23T09:15:38.537Z,8.30
2023-01-23T09:18:10.809Z,11.30
2023-01-23T09:20:42.583Z,10.90
2023-01-23T09:23:14.910Z,11.50
2023-01-23T09:25:46.823Z,9.70
2023-01-23T09:28:18.631Z,8.50
2023-01-23T09:30:50.427Z,9.60
2023-01-23T09:33:24.912Z,8.70
2023-01-23T09:35:57.718Z,8.50
2023-01-23T09:38:29.491Z,10.70
2023-01-23T09:41:08.604Z,11.90
2023-01-23T09:43:48.067Z,8.90
2023-01-23T09:46:24.184Z,9.30
2023-01-23T09:49:00.423Z,8.60
2023-01-23T09:51:45.686Z,7.70
2023-01-23T09:54:32.055Z,19.00
2023-01-23T09:57:12.631Z,18.40
2023-01-23T10:00:00.239Z,13.50
2023-01-23T10:02:32.569Z,9.80
2023-01-23T10:05:04.737Z,21.20
2023-01-23T10:07:53.228Z,15.00
2023-01-23T10:10:54.619Z,10.70
2023-01-23T10:13:39.614Z,22.30
2023-01-23T10:16:25.318Z,11.90
2023-01-23T10:19:10.898Z,11.70
2023-01-23T10:21:52.961Z,10.90
2023-01-23T10:24:45.839Z,9.10
2023-01-23T10:27:21.984Z,11.60
2023-01-23T10:30:00.388Z,14.80
2023-01-23T10:32:42.435Z,7.80
2023-01-23T10:35:18.810Z,15.90
2023-01-23T10:37:56.306Z,19.30
2023-01-23T10:43:19.868Z,14.40
2023-01-23T10:45:52.339Z,12.30
2023-01-23T10:48:42.724Z,11.70
2023-01-23T10:51:36.111Z,13.50
2023-01-23T10:54:29.913Z,13.40
2023-01-23T10:57:04.770Z,10.00
2023-01-23T10:59:41.198Z,12.40
2023-01-23T11:02:27.376Z,14.30
2023-01-23T11:05:00.234Z,15.90
2023-01-23T11:07:37.957Z,18.00
2023-01-23T11:10:22.890Z,17.50
2023-01-23T11:12:56.749Z,29.10
2023-01-23T11:15:30.197Z,19.40
2023-01-23T11:18:02.994Z,16.40
2023-01-23T11:20:38.809Z,10.30
2023-01-23T11:23:18.715Z,9.70
2023-01-23T11:25:52.120Z,15.00
2023-01-23T11:28:27.199Z,14.60
2023-01-23T11:31:14.034Z,12.50
2023-01-23T11:33:55.862Z,12.70
2023-01-23T11:36:44.095Z,14.00
2023-01-23T11:39:23.312Z,14.30
2023-01-23T11:41:55.083Z,21.60
2023-01-23T11:44:30.074Z,34.00
2023-01-23T11:47:29.303Z,26.70
2023-01-23T11:50:18.418Z,17.40
2023-01-23T11:53:03.164Z,11.30
2023-01-23T11:56:09.708Z,14.00
2023-01-23T11:59:08.597Z,17.80
2023-01-23T12:01:55.009Z,14.50
2023-01-23T12:05:00.998Z,13.70
2023-01-23T12:07:39.074Z,17.50
2023-01-23T12:10:18.900Z,12.40
2023-01-23T12:13:08.648Z,13.30
2023-01-23T12:33:36.112Z,11.60
2023-01-23T12:36:23.378Z,22.30
2023-01-23T12:39:05.811Z,25.30
2023-01-23T12:41:41.076Z,36.30
2023-01-23T12:44:17.011Z,22.10
2023-01-23T12:48:13.043Z,13.00
2023-01-23T12:50:49.631Z,14.10
2023-01-23T12:56:02.169Z,9.40
2023-01-23T12:58:40.323Z,11.10
2023-01-23T13:01:26.952Z,10.70
2023-01-23T13:04:10.554Z,12.60
2023-01-23T13:07:04.592Z,13.30
2023-01-23T13:10:01.716Z,15.20
2023-01-23T13:12:34.219Z,15.50
2023-01-23T13:15:40.046Z,10.70
2023-01-23T13:18:28.046Z,10.90
2023-01-23T13:21:22.200Z,8.70
2023-01-23T13:24:34.180Z,11.90
2023-01-23T13:30:02.673Z,9.10
2023-01-23T13:32:34.543Z,9.20
2023-01-23T13:35:46.460Z,11.00
2023-01-23T13:38:37.617Z,11.80
2023-01-23T13:41:30.759Z,11.00
2023-01-23T13:44:18.022Z,10.30
2023-01-23T14:22:58.633Z,11.10
2023-01-23T14:25:31.545Z,10.20
2023-01-23T14:28:07.126Z,9.90
2023-01-23T14:30:39.019Z,8.60
2023-01-23T14:33:18.037Z,9.10
2023-01-23T14:35:50.859Z,7.40
2023-01-23T14:38:31.219Z,7.70
2023-01-23T14:41:07.515Z,11.50
2023-01-23T14:43:41.385Z,9.60
2023-01-23T14:46:19.685Z,7.40
2023-01-23T14:48:55.739Z,8.20
2023-01-23T14:51:28.706Z,8.70
2023-01-23T14:54:02.339Z,8.60
2023-01-23T14:56:37.790Z,9.10
2023-01-23T14:59:26.820Z,10.70
2023-01-23T15:02:01.968Z,10.40
2023-01-23T15:04:37.138Z,11.60
2023-01-23T15:07:17.238Z,11.60
2023-01-23T15:09:49.397Z,12.60
2023-01-23T15:12:21.324Z,10.40
2023-01-23T15:14:56.287Z,7.70
2023-01-23T15:17:28.228Z,8.60
2023-01-23T15:20:00.060Z,8.40
2023-01-23T15:22:33.493Z,7.40
2023-01-23T15:25:29.358Z,7.60
2023-01-23T15:28:01.082Z,9.00
2023-01-23T15:30:41.904Z,6.90
2023-01-23T15:33:28.920Z,9.90
2023-01-23T15:36:12.059Z,9.60
2023-01-23T15:38:48.721Z,9.80
2023-01-23T15:41:33.912Z,7.30
2023-01-23T15:44:12.055Z,10.10
2023-01-23T15:46:44.070Z,8.60
2023-01-23T15:49:24.905Z,9.20
2023-01-23T15:52:02.328Z,8.40
2023-01-23T15:54:37.056Z,8.90
2023-01-23T15:57:11.619Z,9.50
2023-01-23T15:59:43.767Z,8.10
2023-01-23T16:02:30.181Z,11.00
2023-01-23T16:05:02.835Z,12.80
2023-01-23T16:07:36.168Z,18.10
2023-01-23T16:10:21.232Z,10.90
2023-01-23T16:12:54.746Z,8.60
2023-01-23T16:15:28.877Z,11.00
2023-01-23T16:18:02.893Z,9.80
2023-01-23T16:20:38.131Z,10.10
2023-01-23T16:23:17.163Z,10.10
2023-01-23T16:25:50.006Z,11.30
2023-01-23T16:29:29.137Z,9.70
2023-01-23T16:32:02.336Z,9.80
2023-01-23T16:34:34.233Z,11.50
2023-01-23T16:37:06.987Z,11.40
2023-01-23T16:39:38.787Z,10.90
2023-01-23T16:42:16.846Z,11.00
2023-01-23T16:44:48.653Z,10.20
2023-01-23T16:47:20.391Z,10.70
2023-01-23T16:49:54.072Z,10.00
2023-01-23T16:52:27.439Z,9.10
2023-01-23T16:54:59.380Z,10.40
2023-01-23T16:57:31.723Z,8.60
2023-01-23T17:00:04.206Z,9.20
2023-01-23T17:02:36.372Z,10.20
2023-01-23T17:05:09.337Z,12.80
2023-01-23T17:07:41.233Z,11.70
2023-01-23T17:10:17.245Z,10.20
2023-01-23T17:12:50.398Z,9.10
2023-01-23T17:15:25.222Z,8.50
2023-01-23T17:18:00.542Z,7.30
2023-01-23T17:20:32.345Z,8.40
2023-01-23T17:23:04.067Z,8.50
2023-01-23T17:25:40.905Z,8.70
2023-01-23T17:28:17.744Z,18.80
2023-01-23T17:30:52.611Z,12.40
2023-01-23T17:33:26.247Z,9.90
2023-01-23T17:35:57.944Z,9.90
2023-01-23T17:38:31.810Z,11.50
2023-01-23T17:41:06.526Z,9.40
2023-01-23T17:43:39.126Z,8.70
2023-01-23T17:46:16.919Z,9.50
2023-01-23T17:48:49.168Z,8.20
2023-01-23T17:51:22.418Z,8.40
2023-01-23T17:53:54.994Z,11.80
2023-01-23T17:56:26.790Z,10.00
2023-01-23T17:58:58.467Z,11.50
2023-01-23T18:01:30.495Z,10.70
2023-01-23T18:04:02.362Z,11.00
2023-01-23T18:06:34.057Z,10.20
2023-01-23T18:09:06.316Z,8.20
2023-01-23T18:11:41.250Z,9.00
2023-01-23T18:14:26.886Z,9.30
2023-01-23T18:16:59.173Z,9.00
2023-01-23T18:19:31.651Z,9.40
2023-01-23T18:22:04.202Z,9.80
2023-01-23T18:24:38.374Z,10.50
2023-01-23T18:27:22.785Z,10.10
2023-01-23T18:30:20.929Z,7.60
2023-01-23T18:33:08.025Z,11.20
2023-01-23T18:36:00.956Z,10.20
2023-01-23T18:38:42.429Z,8.50
2023-01-23T18:41:22.186Z,7.80
2023-01-23T18:44:03.478Z,7.40
2023-01-23T18:46:35.792Z,9.50
2023-01-23T18:49:08.410Z,7.90
2023-01-23T18:51:47.173Z,7.80
2023-01-23T18:54:32.092Z,7.00
2023-01-23T18:57:20.289Z,10.50
2023-01-23T19:00:00.843Z,10.40
2023-01-23T19:02:41.843Z,10.60
2023-01-23T19:05:28.465Z,8.80
2023-01-23T19:08:01.350Z,13.10
2023-01-23T19:10:48.087Z,10.00
2023-01-23T19:13:27.155Z,8.90
2023-01-23T19:16:08.111Z,9.30
2023-01-23T19:18:48.051Z,7.90
2023-01-23T19:21:23.551Z,7.50
2023-01-23T19:24:00.791Z,9.50
2023-01-23T19:26:34.722Z,8.60
2023-01-23T19:29:20.980Z,9.90
2023-01-23T19:32:09.677Z,7.30
2023-01-23T19:34:43.048Z,8.80
2023-01-23T19:37:15.440Z,8.40
2023-01-23T19:39:47.224Z,8.10
2023-01-23T19:42:19.311Z,9.10
2023-01-23T19:44:50.993Z,8.70
2023-01-23T19:47:22.722Z,9.70
2023-01-23T19:49:54.480Z,8.50
2023-01-23T19:52:26.191Z,15.50
2023-01-23T19:54:57.907Z,10.70
2023-01-23T19:57:29.851Z,11.10
2023-01-23T20:00:01.644Z,8.60
2023-01-23T20:02:33.448Z,8.60
2023-01-23T20:05:05.795Z,8.40
2023-01-23T20:07:37.657Z,8.00
2023-01-23T20:10:11.818Z,7.60
2023-01-23T20:12:46.281Z,8.30
2023-01-23T20:15:19.170Z,7.90
2023-01-23T20:17:51.153Z,8.50
2023-01-23T20:20:23.545Z,9.60
2023-01-23T20:22:56.063Z,10.00
2023-01-23T20:25:27.855Z,10.00
2023-01-23T20:27:59.550Z,8.20
2023-01-23T20:30:33.010Z,9.80
2023-01-23T20:33:07.518Z,7.30
2023-01-23T20:35:40.438Z,9.00
2023-01-23T20:38:12.180Z,9.20
2023-01-23T20:40:44.380Z,7.10
2023-01-23T20:43:16.206Z,8.40
2023-01-23T20:45:53.729Z,9.30
2023-01-23T20:48:25.512Z,10.80
2023-01-23T20:50:58.365Z,10.50
2023-01-23T20:53:34.090Z,8.70
2023-01-23T20:56:08.584Z,9.80
2023-01-23T20:58:59.762Z,9.60
2023-01-23T21:01:54.515Z,8.90
2023-01-23T21:04:28.434Z,12.30
2023-01-23T21:07:01.136Z,10.30
2023-01-23T21:09:32.908Z,9.00
2023-01-23T21:12:05.116Z,12.00
2023-01-23T21:14:36.811Z,11.90
2023-01-23T21:17:09.782Z,11.60
2023-01-23T21:19:41.590Z,14.00
2023-01-23T21:22:13.265Z,13.10
2023-01-23T21:24:45.078Z,11.70
2023-01-23T21:27:17.160Z,10.30
2023-01-23T21:29:49.098Z,11.10
2023-01-23T21:32:21.101Z,9.70
2023-01-23T21:34:52.787Z,10.60
2023-01-23T21:37:24.531Z,11.20
2023-01-23T21:39:56.540Z,9.40
2023-01-23T21:42:28.535Z,10.90
2023-01-23T21:45:00.225Z,11.30
2023-01-23T21:47:31.922Z,11.30
2023-01-23T21:50:03.632Z,9.90
2023-01-23T21:52:35.339Z,13.70
2023-01-23T21:55:08.385Z,18.70
2023-01-23T21:57:40.207Z,15.10
2023-01-23T22:00:31.369Z,12.30
2023-01-23T22:03:03.079Z,9.90
2023-01-23T22:05:36.495Z,12.30
2023-01-23T22:08:08.316Z,11.30
2023-01-23T22:10:40.602Z,11.80
2023-01-23T22:13:12.382Z,11.20
2023-01-23T22:15:44.209Z,11.20
2023-01-23T22:18:16.082Z,13.30
2023-01-23T22:20:47.799Z,13.90
2023-01-23T22:23:19.543Z,14.50
2023-01-23T22:25:53.092Z,13.80
2023-01-23T22:28:25.087Z,11.00
2023-01-23T22:30:57.146Z,10.20
2023-01-23T22:33:39.976Z,9.20
2023-01-23T22:36:15.799Z,10.20
2023-01-23T22:38:53.251Z,13.10
2023-01-23T22:41:25.331Z,11.60
2023-01-23T22:43:59.168Z,10.40
2023-01-23T22:46:32.019Z,11.00
2023-01-23T22:49:03.826Z,12.10
2023-01-23T22:51:35.533Z,12.20
2023-01-23T22:54:07.561Z,12.60
2023-01-23T22:56:39.712Z,12.60
2023-01-23T22:59:11.505Z,11.80
2023-01-23T23:01:43.290Z,11.70
2023-01-23T23:04:15.000Z,10.90
2023-01-23T23:06:46.711Z,9.20
2023-01-23T23:09:18.460Z,10.00
2023-01-23T23:11:51.732Z,10.90
2023-01-23T23:14:23.651Z,10.70
2023-01-23T23:16:55.323Z,11.00
2023-01-23T23:19:27.086Z,11.90
2023-01-23T23:21:58.826Z,13.40
2023-01-23T23:24:30.542Z,15.60
2023-01-23T23:27:02.245Z,12.90
2023-01-23T23:29:34.083Z,10.30
2023-01-23T23:32:06.258Z,11.40
2023-01-23T23:34:38.035Z,9.50
2023-01-23T23:37:09.816Z,9.50
2023-01-23T23:39:41.606Z,10.20
2023-01-23T23:42:13.639Z,9.80
2023-01-23T23:44:45.439Z,13.40
2023-01-23T23:47:17.194Z,10.80
2023-01-23T23:49:48.917Z,11.60
2023-01-23T23:52:20.630Z,12.20
2023-01-23T23:54:52.338Z,11.50
2023-01-23T23:57:24.070Z,11.60
2023-01-23T23:59:55.814Z,11.10
